sensor_id;sensor_type;location;lat;lon;timestamp;temperature;humidity
316;DHT22;14128;48.686;9.738;2023-05-07T00:00:23;11.70;1.00
316;DHT22;14128;48.686;9.738;2023-05-07T00:02:52;11.70;1.00
316;DHT22;14128;48.686;9.738;2023-05-07T00:05:19;11.70;99.90
316;DHT22;14128;48.686;9.738;2023-05-07T00:07:46;11.70;99.90
316;DHT22;14128;48.686;9.738;2023-05-07T00:10:13;11.70;99.90
316;DHT22;14128;48.686;9.738;2023-05-07T00:12:40;11.70;1.00
316;DHT22;14128;48.686;9.738;2023-05-07T00:15:08;11.60;99.90
316;DHT22;14128;48.686;9.738;2023-05-07T00:17:35;11.50;70.80
316;DHT22;14128;48.686;9.738;2023-05-07T00:20:04;11.50;1.00
316;DHT22;14128;48.686;9.738;2023-05-07T00:22:31;11.50;99.90
316;DHT22;14128;48.686;9.738;2023-05-07T00:24:58;11.40;18.00
316;DHT22;14128;48.686;9.738;2023-05-07T00:27:25;11.40;1.00
316;DHT22;14128;48.686;9.738;2023-05-07T00:29:52;11.40;99.90
316;DHT22;14128;48.686;9.738;2023-05-07T00:32:19;11.40;99.90
316;DHT22;14128;48.686;9.738;2023-05-07T00:34:46;11.40;1.00
316;DHT22;14128;48.686;9.738;2023-05-07T00:37:14;11.50;99.90
316;DHT22;14128;48.686;9.738;2023-05-07T00:39:41;11.50;99.90
316;DHT22;14128;48.686;9.738;2023-05-07T00:42:07;11.60;1.00
316;DHT22;14128;48.686;9.738;2023-05-07T00:44:34;11.70;99.90
316;DHT22;14128;48.686;9.738;2023-05-07T00:47:02;11.70;99.90
316;DHT22;14128;48.686;9.738;2023-05-07T00:49:37;11.70;1.00
316;DHT22;14128;48.686;9.738;2023-05-07T00:52:06;11.80;99.90
316;DHT22;14128;48.686;9.738;2023-05-07T00:54:35;11.80;1.00
316;DHT22;14128;48.686;9.738;2023-05-07T00:57:03;11.90;99.90
316;DHT22;14128;48.686;9.738;2023-05-07T00:59:31;11.90;1.00
316;DHT22;14128;48.686;9.738;2023-05-07T01:01:58;11.90;1.00
316;DHT22;14128;48.686;9.738;2023-05-07T01:04:26;12.00;1.00
316;DHT22;14128;48.686;9.738;2023-05-07T01:06:53;12.00;99.90
316;DHT22;14128;48.686;9.738;2023-05-07T01:09:22;12.00;1.00
316;DHT22;14128;48.686;9.738;2023-05-07T01:11:51;12.00;1.00
316;DHT22;14128;48.686;9.738;2023-05-07T01:14:18;12.00;1.00
316;DHT22;14128;48.686;9.738;2023-05-07T01:16:46;12.00;1.00
316;DHT22;14128;48.686;9.738;2023-05-07T01:19:12;11.90;99.90
316;DHT22;14128;48.686;9.738;2023-05-07T01:21:45;11.90;99.90
316;DHT22;14128;48.686;9.738;2023-05-07T01:24:14;11.90;1.00
316;DHT22;14128;48.686;9.738;2023-05-07T01:26:42;11.80;99.90
316;DHT22;14128;48.686;9.738;2023-05-07T01:29:09;11.80;1.00
316;DHT22;14128;48.686;9.738;2023-05-07T01:31:37;11.70;99.90
316;DHT22;14128;48.686;9.738;2023-05-07T01:34:07;11.70;1.00
316;DHT22;14128;48.686;9.738;2023-05-07T01:36:36;11.70;99.90
316;DHT22;14128;48.686;9.738;2023-05-07T01:39:04;11.60;1.00
316;DHT22;14128;48.686;9.738;2023-05-07T01:41:33;11.60;99.90
316;DHT22;14128;48.686;9.738;2023-05-07T01:44:01;11.60;1.00
316;DHT22;14128;48.686;9.738;2023-05-07T01:46:30;11.60;99.90
316;DHT22;14128;48.686;9.738;2023-05-07T01:48:58;11.60;99.90
316;DHT22;14128;48.686;9.738;2023-05-07T01:51:25;11.60;3.00
316;DHT22;14128;48.686;9.738;2023-05-07T01:53:53;11.60;99.90
316;DHT22;14128;48.686;9.738;2023-05-07T01:56:20;11.60;1.00
316;DHT22;14128;48.686;9.738;2023-05-07T01:58:48;11.60;1.00
316;DHT22;14128;48.686;9.738;2023-05-07T02:01:16;11.60;1.00
316;DHT22;14128;48.686;9.738;2023-05-07T02:03:43;11.50;1.00
316;DHT22;14128;48.686;9.738;2023-05-07T02:06:10;11.50;1.00
316;DHT22;14128;48.686;9.738;2023-05-07T02:08:37;11.50;1.00
316;DHT22;14128;48.686;9.738;2023-05-07T02:11:04;11.50;1.00
316;DHT22;14128;48.686;9.738;2023-05-07T02:13:33;11.40;99.90
316;DHT22;14128;48.686;9.738;2023-05-07T02:16:01;11.40;1.00
316;DHT22;14128;48.686;9.738;2023-05-07T02:18:28;11.40;1.00
316;DHT22;14128;48.686;9.738;2023-05-07T02:20:55;11.30;1.00
316;DHT22;14128;48.686;9.738;2023-05-07T02:23:22;11.30;99.90
316;DHT22;14128;48.686;9.738;2023-05-07T02:25:48;11.30;99.90
316;DHT22;14128;48.686;9.738;2023-05-07T02:28:15;11.20;99.90
316;DHT22;14128;48.686;9.738;2023-05-07T02:30:42;11.20;1.00
316;DHT22;14128;48.686;9.738;2023-05-07T02:33:10;11.10;99.90
316;DHT22;14128;48.686;9.738;2023-05-07T02:35:37;11.10;19.20
316;DHT22;14128;48.686;9.738;2023-05-07T02:38:04;11.00;1.00
316;DHT22;14128;48.686;9.738;2023-05-07T02:40:31;11.00;1.00
316;DHT22;14128;48.686;9.738;2023-05-07T02:42:59;10.90;1.00
316;DHT22;14128;48.686;9.738;2023-05-07T02:45:26;10.90;99.90
316;DHT22;14128;48.686;9.738;2023-05-07T02:47:53;10.90;99.90
316;DHT22;14128;48.686;9.738;2023-05-07T02:50:21;10.90;99.90
316;DHT22;14128;48.686;9.738;2023-05-07T02:52:48;10.80;99.90
316;DHT22;14128;48.686;9.738;2023-05-07T02:55:15;10.80;99.90
316;DHT22;14128;48.686;9.738;2023-05-07T02:57:42;10.80;99.90
316;DHT22;14128;48.686;9.738;2023-05-07T03:00:13;10.70;99.90
316;DHT22;14128;48.686;9.738;2023-05-07T03:02:41;10.60;99.90
316;DHT22;14128;48.686;9.738;2023-05-07T03:05:08;10.60;99.90
316;DHT22;14128;48.686;9.738;2023-05-07T03:07:36;10.50;99.90
316;DHT22;14128;48.686;9.738;2023-05-07T03:10:04;10.50;99.90
316;DHT22;14128;48.686;9.738;2023-05-07T03:12:31;10.40;99.90
316;DHT22;14128;48.686;9.738;2023-05-07T03:14:57;10.30;99.90
316;DHT22;14128;48.686;9.738;2023-05-07T03:17:24;10.30;99.90
316;DHT22;14128;48.686;9.738;2023-05-07T03:19:51;10.20;99.90
316;DHT22;14128;48.686;9.738;2023-05-07T03:22:18;10.20;1.00
316;DHT22;14128;48.686;9.738;2023-05-07T03:24:46;10.20;99.90
316;DHT22;14128;48.686;9.738;2023-05-07T03:27:13;10.10;1.00
316;DHT22;14128;48.686;9.738;2023-05-07T03:29:39;10.10;1.00
316;DHT22;14128;48.686;9.738;2023-05-07T03:32:06;10.10;99.90
316;DHT22;14128;48.686;9.738;2023-05-07T03:34:33;10.10;99.90
316;DHT22;14128;48.686;9.738;2023-05-07T03:37:00;10.10;14.70
316;DHT22;14128;48.686;9.738;2023-05-07T03:39:27;10.10;99.90
316;DHT22;14128;48.686;9.738;2023-05-07T03:41:55;10.10;99.90
316;DHT22;14128;48.686;9.738;2023-05-07T03:44:22;10.10;99.90
316;DHT22;14128;48.686;9.738;2023-05-07T03:46:49;10.20;64.40
316;DHT22;14128;48.686;9.738;2023-05-07T03:49:15;10.10;1.00
316;DHT22;14128;48.686;9.738;2023-05-07T03:51:42;10.10;99.90
316;DHT22;14128;48.686;9.738;2023-05-07T03:54:09;10.20;99.90
316;DHT22;14128;48.686;9.738;2023-05-07T03:56:36;10.20;99.90
316;DHT22;14128;48.686;9.738;2023-05-07T03:59:04;10.20;1.00
316;DHT22;14128;48.686;9.738;2023-05-07T04:01:31;10.20;1.00
316;DHT22;14128;48.686;9.738;2023-05-07T04:03:57;10.20;99.90
316;DHT22;14128;48.686;9.738;2023-05-07T04:06:24;10.20;1.00
316;DHT22;14128;48.686;9.738;2023-05-07T04:08:51;10.20;1.00
316;DHT22;14128;48.686;9.738;2023-05-07T04:11:18;10.20;99.90
316;DHT22;14128;48.686;9.738;2023-05-07T04:13:45;10.20;99.90
316;DHT22;14128;48.686;9.738;2023-05-07T04:16:14;10.20;99.90
316;DHT22;14128;48.686;9.738;2023-05-07T04:18:41;10.30;1.00
316;DHT22;14128;48.686;9.738;2023-05-07T04:21:14;10.30;1.00
316;DHT22;14128;48.686;9.738;2023-05-07T04:23:40;10.30;99.90
316;DHT22;14128;48.686;9.738;2023-05-07T04:26:07;10.30;99.90
316;DHT22;14128;48.686;9.738;2023-05-07T04:28:34;10.30;99.90
316;DHT22;14128;48.686;9.738;2023-05-07T04:31:01;10.40;99.90
316;DHT22;14128;48.686;9.738;2023-05-07T04:33:29;10.50;1.00
316;DHT22;14128;48.686;9.738;2023-05-07T04:35:56;10.50;99.90
316;DHT22;14128;48.686;9.738;2023-05-07T04:38:23;10.60;1.00
316;DHT22;14128;48.686;9.738;2023-05-07T04:40:50;10.80;99.90
316;DHT22;14128;48.686;9.738;2023-05-07T04:43:17;10.80;99.90
316;DHT22;14128;48.686;9.738;2023-05-07T04:45:44;10.90;99.90
316;DHT22;14128;48.686;9.738;2023-05-07T04:48:11;11.00;1.00
316;DHT22;14128;48.686;9.738;2023-05-07T04:50:41;11.10;1.00
316;DHT22;14128;48.686;9.738;2023-05-07T04:53:08;11.20;1.00
316;DHT22;14128;48.686;9.738;2023-05-07T04:55:34;11.30;1.00
316;DHT22;14128;48.686;9.738;2023-05-07T04:58:01;11.40;59.80
316;DHT22;14128;48.686;9.738;2023-05-07T05:00:28;11.40;99.90
316;DHT22;14128;48.686;9.738;2023-05-07T05:02:55;11.50;99.90
316;DHT22;14128;48.686;9.738;2023-05-07T05:05:22;11.60;99.90
316;DHT22;14128;48.686;9.738;2023-05-07T05:07:50;11.60;1.00
316;DHT22;14128;48.686;9.738;2023-05-07T05:10:17;11.80;1.00
316;DHT22;14128;48.686;9.738;2023-05-07T05:12:44;11.80;99.90
316;DHT22;14128;48.686;9.738;2023-05-07T05:15:11;11.90;43.50
316;DHT22;14128;48.686;9.738;2023-05-07T05:17:38;12.00;79.30
316;DHT22;14128;48.686;9.738;2023-05-07T05:20:06;12.10;99.90
316;DHT22;14128;48.686;9.738;2023-05-07T05:22:33;12.20;1.00
316;DHT22;14128;48.686;9.738;2023-05-07T05:25:01;12.30;99.90
316;DHT22;14128;48.686;9.738;2023-05-07T05:27:28;12.30;99.90
316;DHT22;14128;48.686;9.738;2023-05-07T05:29:55;12.40;35.30
316;DHT22;14128;48.686;9.738;2023-05-07T05:32:22;12.50;99.90
316;DHT22;14128;48.686;9.738;2023-05-07T05:34:49;12.60;99.90
316;DHT22;14128;48.686;9.738;2023-05-07T05:37:16;12.60;99.90
316;DHT22;14128;48.686;9.738;2023-05-07T05:39:43;12.70;99.90
316;DHT22;14128;48.686;9.738;2023-05-07T05:42:11;12.90;99.90
316;DHT22;14128;48.686;9.738;2023-05-07T05:44:38;13.00;99.90
316;DHT22;14128;48.686;9.738;2023-05-07T05:47:05;13.10;99.90
316;DHT22;14128;48.686;9.738;2023-05-07T05:49:31;13.20;1.00
316;DHT22;14128;48.686;9.738;2023-05-07T05:51:59;13.40;99.90
316;DHT22;14128;48.686;9.738;2023-05-07T05:54:26;13.50;99.10
316;DHT22;14128;48.686;9.738;2023-05-07T05:56:52;13.70;99.90
316;DHT22;14128;48.686;9.738;2023-05-07T05:59:21;13.90;99.90
316;DHT22;14128;48.686;9.738;2023-05-07T06:01:47;14.00;99.90
316;DHT22;14128;48.686;9.738;2023-05-07T06:04:14;14.10;99.90
316;DHT22;14128;48.686;9.738;2023-05-07T06:06:41;14.30;99.90
316;DHT22;14128;48.686;9.738;2023-05-07T06:09:08;14.40;99.90
316;DHT22;14128;48.686;9.738;2023-05-07T06:11:35;14.50;99.90
316;DHT22;14128;48.686;9.738;2023-05-07T06:14:02;14.70;99.90
316;DHT22;14128;48.686;9.738;2023-05-07T06:16:30;14.80;99.90
316;DHT22;14128;48.686;9.738;2023-05-07T06:18:57;15.00;99.90
316;DHT22;14128;48.686;9.738;2023-05-07T06:21:23;15.20;99.90
316;DHT22;14128;48.686;9.738;2023-05-07T06:23:50;15.30;99.90
316;DHT22;14128;48.686;9.738;2023-05-07T06:26:17;15.50;99.90
316;DHT22;14128;48.686;9.738;2023-05-07T06:28:44;15.70;99.90
316;DHT22;14128;48.686;9.738;2023-05-07T06:31:12;15.90;99.90
316;DHT22;14128;48.686;9.738;2023-05-07T06:33:40;16.10;99.90
316;DHT22;14128;48.686;9.738;2023-05-07T06:36:07;16.40;1.00
316;DHT22;14128;48.686;9.738;2023-05-07T06:38:34;16.60;1.00
316;DHT22;14128;48.686;9.738;2023-05-07T06:41:01;16.90;99.90
316;DHT22;14128;48.686;9.738;2023-05-07T06:43:28;17.10;99.90
316;DHT22;14128;48.686;9.738;2023-05-07T06:45:54;17.30;1.00
316;DHT22;14128;48.686;9.738;2023-05-07T06:48:21;17.60;99.90
316;DHT22;14128;48.686;9.738;2023-05-07T06:50:50;17.80;1.00
316;DHT22;14128;48.686;9.738;2023-05-07T06:53:16;18.10;99.90
316;DHT22;14128;48.686;9.738;2023-05-07T06:55:43;18.30;1.00
316;DHT22;14128;48.686;9.738;2023-05-07T06:58:10;18.70;1.00
316;DHT22;14128;48.686;9.738;2023-05-07T07:00:37;19.00;99.90
316;DHT22;14128;48.686;9.738;2023-05-07T07:03:04;19.40;99.90
316;DHT22;14128;48.686;9.738;2023-05-07T07:05:31;19.80;99.90
316;DHT22;14128;48.686;9.738;2023-05-07T07:07:59;20.20;1.00
316;DHT22;14128;48.686;9.738;2023-05-07T07:10:25;20.50;99.90
316;DHT22;14128;48.686;9.738;2023-05-07T07:12:52;20.90;1.00
316;DHT22;14128;48.686;9.738;2023-05-07T07:15:19;20.90;1.00
316;DHT22;14128;48.686;9.738;2023-05-07T07:17:47;20.80;1.00
316;DHT22;14128;48.686;9.738;2023-05-07T07:20:14;20.70;99.90
316;DHT22;14128;48.686;9.738;2023-05-07T07:22:41;20.60;99.90
316;DHT22;14128;48.686;9.738;2023-05-07T07:25:10;20.40;99.90
316;DHT22;14128;48.686;9.738;2023-05-07T07:27:37;20.30;99.90
316;DHT22;14128;48.686;9.738;2023-05-07T07:30:06;20.20;99.90
316;DHT22;14128;48.686;9.738;2023-05-07T07:32:34;20.10;99.90
316;DHT22;14128;48.686;9.738;2023-05-07T07:35:01;19.90;99.90
316;DHT22;14128;48.686;9.738;2023-05-07T07:37:28;19.80;99.90
316;DHT22;14128;48.686;9.738;2023-05-07T07:39:55;19.70;99.90
316;DHT22;14128;48.686;9.738;2023-05-07T07:42:23;19.70;99.90
316;DHT22;14128;48.686;9.738;2023-05-07T07:44:50;19.70;99.90
316;DHT22;14128;48.686;9.738;2023-05-07T07:47:17;19.70;99.90
316;DHT22;14128;48.686;9.738;2023-05-07T07:49:43;19.80;99.90
316;DHT22;14128;48.686;9.738;2023-05-07T07:52:10;19.80;1.00
316;DHT22;14128;48.686;9.738;2023-05-07T07:54:37;19.90;99.90
316;DHT22;14128;48.686;9.738;2023-05-07T07:57:04;20.00;99.90
316;DHT22;14128;48.686;9.738;2023-05-07T07:59:32;20.10;99.90
316;DHT22;14128;48.686;9.738;2023-05-07T08:01:59;20.20;1.00
316;DHT22;14128;48.686;9.738;2023-05-07T08:04:26;20.40;99.90
316;DHT22;14128;48.686;9.738;2023-05-07T08:06:53;20.60;99.90
316;DHT22;14128;48.686;9.738;2023-05-07T08:09:21;20.70;99.90
316;DHT22;14128;48.686;9.738;2023-05-07T08:11:48;20.90;99.90
316;DHT22;14128;48.686;9.738;2023-05-07T08:14:15;21.10;99.90
316;DHT22;14128;48.686;9.738;2023-05-07T08:16:43;21.20;99.90
316;DHT22;14128;48.686;9.738;2023-05-07T08:19:10;21.40;99.90
316;DHT22;14128;48.686;9.738;2023-05-07T08:21:39;21.60;99.90
316;DHT22;14128;48.686;9.738;2023-05-07T08:24:06;21.70;99.90
316;DHT22;14128;48.686;9.738;2023-05-07T08:26:33;21.90;99.90
316;DHT22;14128;48.686;9.738;2023-05-07T08:29:01;22.00;99.90
316;DHT22;14128;48.686;9.738;2023-05-07T08:31:28;22.00;99.90
316;DHT22;14128;48.686;9.738;2023-05-07T08:33:56;22.00;99.90
316;DHT22;14128;48.686;9.738;2023-05-07T08:36:23;22.00;99.90
316;DHT22;14128;48.686;9.738;2023-05-07T08:38:51;22.10;99.90
316;DHT22;14128;48.686;9.738;2023-05-07T08:41:18;22.00;99.90
316;DHT22;14128;48.686;9.738;2023-05-07T08:43:47;21.90;99.90
316;DHT22;14128;48.686;9.738;2023-05-07T08:46:17;21.90;99.90
316;DHT22;14128;48.686;9.738;2023-05-07T08:48:44;22.00;99.90
316;DHT22;14128;48.686;9.738;2023-05-07T08:51:16;22.10;99.90
316;DHT22;14128;48.686;9.738;2023-05-07T08:53:43;22.20;99.90
316;DHT22;14128;48.686;9.738;2023-05-07T08:56:11;22.30;99.90
316;DHT22;14128;48.686;9.738;2023-05-07T08:58:38;22.40;99.90
316;DHT22;14128;48.686;9.738;2023-05-07T09:01:08;22.50;99.90
316;DHT22;14128;48.686;9.738;2023-05-07T09:03:35;22.50;99.90
316;DHT22;14128;48.686;9.738;2023-05-07T09:06:03;22.60;99.90
316;DHT22;14128;48.686;9.738;2023-05-07T09:08:33;22.80;99.90
316;DHT22;14128;48.686;9.738;2023-05-07T09:11:00;22.80;99.90
316;DHT22;14128;48.686;9.738;2023-05-07T09:13:27;22.90;99.90
316;DHT22;14128;48.686;9.738;2023-05-07T09:15:54;23.00;99.90
316;DHT22;14128;48.686;9.738;2023-05-07T09:18:23;23.10;99.90
316;DHT22;14128;48.686;9.738;2023-05-07T09:20:50;23.10;99.90
316;DHT22;14128;48.686;9.738;2023-05-07T09:23:17;23.20;99.90
316;DHT22;14128;48.686;9.738;2023-05-07T09:25:45;23.30;99.90
316;DHT22;14128;48.686;9.738;2023-05-07T09:28:12;23.30;99.90
316;DHT22;14128;48.686;9.738;2023-05-07T09:30:39;23.30;99.90
316;DHT22;14128;48.686;9.738;2023-05-07T09:33:06;23.40;99.90
316;DHT22;14128;48.686;9.738;2023-05-07T09:35:33;23.50;99.90
316;DHT22;14128;48.686;9.738;2023-05-07T09:38:00;23.60;99.90
316;DHT22;14128;48.686;9.738;2023-05-07T09:40:29;23.70;99.90
316;DHT22;14128;48.686;9.738;2023-05-07T09:43:08;23.90;99.90
316;DHT22;14128;48.686;9.738;2023-05-07T09:45:36;24.10;99.90
316;DHT22;14128;48.686;9.738;2023-05-07T09:48:05;24.30;99.90
316;DHT22;14128;48.686;9.738;2023-05-07T09:50:35;24.50;99.90
316;DHT22;14128;48.686;9.738;2023-05-07T09:53:03;24.50;99.90
316;DHT22;14128;48.686;9.738;2023-05-07T09:55:30;24.50;99.90
316;DHT22;14128;48.686;9.738;2023-05-07T09:57:59;24.40;99.90
316;DHT22;14128;48.686;9.738;2023-05-07T10:00:28;24.30;99.90
316;DHT22;14128;48.686;9.738;2023-05-07T10:02:57;24.20;99.90
316;DHT22;14128;48.686;9.738;2023-05-07T10:05:24;24.40;99.90
316;DHT22;14128;48.686;9.738;2023-05-07T10:07:52;24.80;99.90
316;DHT22;14128;48.686;9.738;2023-05-07T10:10:20;25.00;99.90
316;DHT22;14128;48.686;9.738;2023-05-07T10:12:47;25.00;99.90
316;DHT22;14128;48.686;9.738;2023-05-07T10:15:16;25.00;99.90
316;DHT22;14128;48.686;9.738;2023-05-07T10:17:44;24.90;99.90
316;DHT22;14128;48.686;9.738;2023-05-07T10:20:11;24.90;99.90
316;DHT22;14128;48.686;9.738;2023-05-07T10:22:40;24.90;99.90
316;DHT22;14128;48.686;9.738;2023-05-07T10:25:14;25.00;99.90
316;DHT22;14128;48.686;9.738;2023-05-07T10:27:43;25.10;99.90
316;DHT22;14128;48.686;9.738;2023-05-07T10:30:19;25.20;99.90
316;DHT22;14128;48.686;9.738;2023-05-07T10:32:49;25.30;99.90
316;DHT22;14128;48.686;9.738;2023-05-07T10:35:20;25.40;99.90
316;DHT22;14128;48.686;9.738;2023-05-07T10:37:48;25.40;99.90
316;DHT22;14128;48.686;9.738;2023-05-07T10:40:15;25.30;99.90
316;DHT22;14128;48.686;9.738;2023-05-07T10:42:58;25.40;99.90
316;DHT22;14128;48.686;9.738;2023-05-07T10:45:28;25.40;99.90
316;DHT22;14128;48.686;9.738;2023-05-07T10:48:09;25.30;99.90
316;DHT22;14128;48.686;9.738;2023-05-07T10:50:36;25.40;99.90
316;DHT22;14128;48.686;9.738;2023-05-07T10:53:34;25.40;99.90
316;DHT22;14128;48.686;9.738;2023-05-07T10:56:25;25.60;1.00
316;DHT22;14128;48.686;9.738;2023-05-07T10:58:53;25.80;99.90
316;DHT22;14128;48.686;9.738;2023-05-07T11:01:52;25.80;99.90
316;DHT22;14128;48.686;9.738;2023-05-07T11:04:19;26.00;99.90
316;DHT22;14128;48.686;9.738;2023-05-07T11:07:23;26.10;1.40
316;DHT22;14128;48.686;9.738;2023-05-07T11:10:04;26.30;99.90
316;DHT22;14128;48.686;9.738;2023-05-07T11:12:53;26.40;99.90
316;DHT22;14128;48.686;9.738;2023-05-07T11:15:47;26.60;1.00
316;DHT22;14128;48.686;9.738;2023-05-07T11:18:17;26.80;99.90
316;DHT22;14128;48.686;9.738;2023-05-07T11:20:55;26.90;1.00
316;DHT22;14128;48.686;9.738;2023-05-07T11:23:57;27.10;99.90
316;DHT22;14128;48.686;9.738;2023-05-07T11:26:26;27.10;1.00
316;DHT22;14128;48.686;9.738;2023-05-07T11:28:53;27.30;99.90
316;DHT22;14128;48.686;9.738;2023-05-07T11:31:25;27.10;99.90
316;DHT22;14128;48.686;9.738;2023-05-07T11:33:55;27.00;99.90
316;DHT22;14128;48.686;9.738;2023-05-07T11:36:23;27.20;1.00
316;DHT22;14128;48.686;9.738;2023-05-07T11:38:50;27.50;99.90
316;DHT22;14128;48.686;9.738;2023-05-07T11:41:17;27.60;99.90
316;DHT22;14128;48.686;9.738;2023-05-07T11:43:56;27.70;99.90
316;DHT22;14128;48.686;9.738;2023-05-07T11:46:23;27.60;99.90
316;DHT22;14128;48.686;9.738;2023-05-07T11:48:50;27.90;1.00
316;DHT22;14128;48.686;9.738;2023-05-07T11:51:22;28.10;99.90
316;DHT22;14128;48.686;9.738;2023-05-07T11:53:50;28.20;99.90
316;DHT22;14128;48.686;9.738;2023-05-07T11:56:18;28.10;1.00
316;DHT22;14128;48.686;9.738;2023-05-07T11:58:46;28.10;99.90
316;DHT22;14128;48.686;9.738;2023-05-07T12:01:14;28.40;99.90
316;DHT22;14128;48.686;9.738;2023-05-07T12:03:43;28.50;99.90
316;DHT22;14128;48.686;9.738;2023-05-07T12:06:12;28.50;99.90
316;DHT22;14128;48.686;9.738;2023-05-07T12:08:41;28.80;99.90
316;DHT22;14128;48.686;9.738;2023-05-07T12:11:09;28.90;99.90
316;DHT22;14128;48.686;9.738;2023-05-07T12:13:37;29.00;99.90
316;DHT22;14128;48.686;9.738;2023-05-07T12:16:05;29.10;99.90
316;DHT22;14128;48.686;9.738;2023-05-07T12:18:33;28.90;99.90
316;DHT22;14128;48.686;9.738;2023-05-07T12:21:00;28.70;99.90
316;DHT22;14128;48.686;9.738;2023-05-07T12:23:28;28.60;99.90
316;DHT22;14128;48.686;9.738;2023-05-07T12:25:56;28.40;1.00
316;DHT22;14128;48.686;9.738;2023-05-07T12:28:23;28.50;1.00
316;DHT22;14128;48.686;9.738;2023-05-07T12:30:50;28.70;1.00
316;DHT22;14128;48.686;9.738;2023-05-07T12:33:18;28.60;1.00
316;DHT22;14128;48.686;9.738;2023-05-07T12:35:47;28.70;1.00
316;DHT22;14128;48.686;9.738;2023-05-07T12:38:16;28.70;99.90
316;DHT22;14128;48.686;9.738;2023-05-07T12:40:46;28.80;1.00
316;DHT22;14128;48.686;9.738;2023-05-07T12:43:17;28.50;99.90
316;DHT22;14128;48.686;9.738;2023-05-07T12:45:46;28.40;1.00
316;DHT22;14128;48.686;9.738;2023-05-07T12:48:13;28.60;1.00
316;DHT22;14128;48.686;9.738;2023-05-07T12:50:40;28.40;99.90
316;DHT22;14128;48.686;9.738;2023-05-07T12:53:08;28.40;1.00
316;DHT22;14128;48.686;9.738;2023-05-07T12:55:44;28.40;1.00
316;DHT22;14128;48.686;9.738;2023-05-07T12:58:19;28.40;99.90
316;DHT22;14128;48.686;9.738;2023-05-07T13:00:48;28.30;1.00
316;DHT22;14128;48.686;9.738;2023-05-07T13:03:21;28.00;1.00
316;DHT22;14128;48.686;9.738;2023-05-07T13:05:49;27.80;1.00
316;DHT22;14128;48.686;9.738;2023-05-07T13:08:35;27.60;99.90
316;DHT22;14128;48.686;9.738;2023-05-07T13:11:04;27.40;99.90
316;DHT22;14128;48.686;9.738;2023-05-07T13:13:33;27.00;99.90
316;DHT22;14128;48.686;9.738;2023-05-07T13:16:00;26.60;99.90
316;DHT22;14128;48.686;9.738;2023-05-07T13:18:30;26.20;1.00
316;DHT22;14128;48.686;9.738;2023-05-07T13:20:57;25.90;99.90
316;DHT22;14128;48.686;9.738;2023-05-07T13:23:24;25.40;99.90
316;DHT22;14128;48.686;9.738;2023-05-07T13:25:51;25.10;1.00
316;DHT22;14128;48.686;9.738;2023-05-07T13:28:19;24.70;99.90
316;DHT22;14128;48.686;9.738;2023-05-07T13:30:48;24.40;99.90
316;DHT22;14128;48.686;9.738;2023-05-07T13:33:17;24.10;99.90
316;DHT22;14128;48.686;9.738;2023-05-07T13:35:44;23.90;99.90
316;DHT22;14128;48.686;9.738;2023-05-07T13:38:11;23.70;99.90
316;DHT22;14128;48.686;9.738;2023-05-07T13:40:38;23.40;99.90
316;DHT22;14128;48.686;9.738;2023-05-07T13:43:05;23.20;99.90
316;DHT22;14128;48.686;9.738;2023-05-07T13:45:33;23.00;99.90
316;DHT22;14128;48.686;9.738;2023-05-07T13:48:01;22.90;99.90
316;DHT22;14128;48.686;9.738;2023-05-07T13:50:28;22.80;99.90
316;DHT22;14128;48.686;9.738;2023-05-07T13:52:55;22.80;99.90
316;DHT22;14128;48.686;9.738;2023-05-07T13:55:23;22.70;99.90
316;DHT22;14128;48.686;9.738;2023-05-07T13:57:55;22.60;99.90
316;DHT22;14128;48.686;9.738;2023-05-07T14:00:22;22.60;99.90
316;DHT22;14128;48.686;9.738;2023-05-07T14:02:49;22.50;99.90
316;DHT22;14128;48.686;9.738;2023-05-07T14:05:18;22.50;99.90
316;DHT22;14128;48.686;9.738;2023-05-07T14:07:44;22.50;99.90
316;DHT22;14128;48.686;9.738;2023-05-07T14:10:12;22.40;47.80
316;DHT22;14128;48.686;9.738;2023-05-07T14:12:39;22.40;99.90
316;DHT22;14128;48.686;9.738;2023-05-07T14:15:07;22.20;99.90
316;DHT22;14128;48.686;9.738;2023-05-07T14:17:34;22.10;99.90
316;DHT22;14128;48.686;9.738;2023-05-07T14:20:01;22.00;99.90
316;DHT22;14128;48.686;9.738;2023-05-07T14:22:29;21.80;99.90
316;DHT22;14128;48.686;9.738;2023-05-07T14:24:56;21.70;99.90
316;DHT22;14128;48.686;9.738;2023-05-07T14:27:23;21.60;99.90
316;DHT22;14128;48.686;9.738;2023-05-07T14:29:49;20.90;99.90
316;DHT22;14128;48.686;9.738;2023-05-07T14:32:16;20.30;99.90
316;DHT22;14128;48.686;9.738;2023-05-07T14:34:44;19.70;99.90
316;DHT22;14128;48.686;9.738;2023-05-07T14:37:11;19.30;99.90
316;DHT22;14128;48.686;9.738;2023-05-07T14:39:39;19.10;99.90
316;DHT22;14128;48.686;9.738;2023-05-07T14:42:07;18.80;99.90
316;DHT22;14128;48.686;9.738;2023-05-07T14:44:34;18.60;1.00
316;DHT22;14128;48.686;9.738;2023-05-07T14:47:01;18.40;99.90
316;DHT22;14128;48.686;9.738;2023-05-07T14:49:27;18.20;99.90
316;DHT22;14128;48.686;9.738;2023-05-07T14:51:57;17.90;99.90
316;DHT22;14128;48.686;9.738;2023-05-07T14:54:24;17.80;99.90
316;DHT22;14128;48.686;9.738;2023-05-07T14:56:53;17.80;1.00
316;DHT22;14128;48.686;9.738;2023-05-07T14:59:20;17.60;99.90
316;DHT22;14128;48.686;9.738;2023-05-07T15:01:47;17.50;99.90
316;DHT22;14128;48.686;9.738;2023-05-07T15:04:14;17.30;99.90
316;DHT22;14128;48.686;9.738;2023-05-07T15:06:41;17.10;99.90
316;DHT22;14128;48.686;9.738;2023-05-07T15:09:08;16.80;99.90
316;DHT22;14128;48.686;9.738;2023-05-07T15:11:35;16.70;1.00
316;DHT22;14128;48.686;9.738;2023-05-07T15:14:03;16.60;1.00
316;DHT22;14128;48.686;9.738;2023-05-07T15:16:30;16.50;99.90
316;DHT22;14128;48.686;9.738;2023-05-07T15:18:58;16.40;99.90
316;DHT22;14128;48.686;9.738;2023-05-07T15:21:24;16.40;99.90
316;DHT22;14128;48.686;9.738;2023-05-07T15:23:52;16.30;99.90
316;DHT22;14128;48.686;9.738;2023-05-07T15:26:19;16.30;99.90
316;DHT22;14128;48.686;9.738;2023-05-07T15:28:45;16.20;99.90
316;DHT22;14128;48.686;9.738;2023-05-07T15:31:15;16.10;1.00
316;DHT22;14128;48.686;9.738;2023-05-07T15:33:42;16.00;99.90
316;DHT22;14128;48.686;9.738;2023-05-07T15:36:10;16.00;99.90
316;DHT22;14128;48.686;9.738;2023-05-07T15:38:36;16.00;99.90
316;DHT22;14128;48.686;9.738;2023-05-07T15:41:03;15.90;1.00
316;DHT22;14128;48.686;9.738;2023-05-07T15:43:30;15.80;99.90
316;DHT22;14128;48.686;9.738;2023-05-07T15:45:57;15.80;99.90
316;DHT22;14128;48.686;9.738;2023-05-07T15:48:26;15.80;1.00
316;DHT22;14128;48.686;9.738;2023-05-07T15:50:53;15.60;99.90
316;DHT22;14128;48.686;9.738;2023-05-07T15:53:20;15.50;99.90
316;DHT22;14128;48.686;9.738;2023-05-07T15:55:47;15.40;99.90
316;DHT22;14128;48.686;9.738;2023-05-07T15:58:14;15.40;1.00
316;DHT22;14128;48.686;9.738;2023-05-07T16:00:44;15.40;1.00
316;DHT22;14128;48.686;9.738;2023-05-07T16:03:11;15.40;1.00
316;DHT22;14128;48.686;9.738;2023-05-07T16:05:39;15.50;99.90
316;DHT22;14128;48.686;9.738;2023-05-07T16:08:06;15.50;99.90
316;DHT22;14128;48.686;9.738;2023-05-07T16:10:33;15.60;99.90